< < Back
Terminal Aerodrome Forecast


Current Version              Previous Versions:   1  2  3  4  5  6  7  8  9  

Terminal Aerodrome Forecast

232
FTUS44 KOHX 172300 RRA
TAFBNA
TAF
KBNA 172340Z 1800/1824 03005KT P6SM BKN250
     FM180400 00000KT P6SM BKN080 BKN250
     FM181000 00000KT 4SM BR SCT250
     FM181400 04004KT P6SM SCT060 SCT250=



Latest METAR

187
SAUS70 KWBC 180300
MTRBNA
METAR KBNA 180253Z 33004KT 10SM BKN080 OVC090 19/15 A2998 RMK AO2 SLP150
T01890150 51009


USA.gov is the U.S. government's official web portal to all federal, state and local government web resources and services.